Raritan, Illinois
Current Conditions -  °F | °C
As of 8:15 AM on Saturday 22 Nov 2014 (Local Time) from KMQB Reporting Station
Haze Haze  
Wind Chill: 39°   Ceiling: 1700
Heat Index: 44°   Visibility: 5mi
Dew Point: 41°   Wind: 8mph
Humidity: 90%   Direction: 170°S
Pressure: 30.02"   Gusts: NA
Location:  40.7°N, 90.83°W
Report Text: KMQB 221415Z AUTO 17007KT 5SM BR BKN017 OVC034 07/05 A3002 RMK AO2 T00650050
Loading
Personal Weather Stations






























Interactive Weather Map New forecast layout! Learn more

10-Day Weather Forecast

Advertisements
Track Severe Weather on mobile